Terminal Aerodrome Forecast
Issued by NWS

Home | Current Version | Previous Version | Text Only | Print | Product List | Glossary On
Versions: 1 2 3 4 5 6 7 8 9 10 11 12 13 14 15 16 17 18 19 20 21 22 23 24
894
FTUS43 KDDC 061720
TAFGCK
TAF
KGCK 061720Z 0618/0718 18019G30KT P6SM BKN250
     FM070400 17012G18KT P6SM SCT250 WS004/21045KT
     FM071400 19020G26KT P6SM SKC=

USA.gov is the U.S. government's official web portal to all federal, state and local government web resources and services.